Terminal Aerodrome Forecast
Issued by NWS Central Illinois

Home | Current Version | Previous Version | Text Only | Print | Product List | Glossary On
Versions: 1 2 3 4 5 6 7 8 9 10 11 12 13 14 15
890
FTUS43 KILX 201514 AAA
TAFSPI
TAF AMD
KSPI 201514Z 2015/2112 18005KT P6SM SCT050 BKN120
      TEMPO 2016/2017 BKN050
     FM201700 18007KT P6SM VCSH SCT050 BKN120
      TEMPO 2017/2021 BKN050
     FM202100 17008KT P6SM SCT070
     FM210000 VRB04KT P6SM BKN070=

USA.gov is the U.S. government's official web portal to all federal, state and local government web resources and services.